Time;durP1;ratioP1;P1;durP2;ratioP2;P2;SDS_P1;SDS_P2;PMS_P1;PMS_P2;Temp;Humidity;BMP_temperature;BMP_pressure;BME280_temperature;BME280_humidity;BME280_pressure;Samples;Min_cycle;Max_cycle;Signal;HPM_P1;HPM_P2
2021/03/22 00:01:02;;;;;;;9.02;7.30;;;4.60;64.30;;;;;;4981692;28;20586;-78
2021/03/22 00:03:28;;;;;;;11.68;7.35;;;4.50;65.00;;;;;;4974327;28;20586;-78
2021/03/22 00:05:54;;;;;;;8.23;6.75;;;4.40;65.00;;;;;;4987695;28;20096;-78
2021/03/22 00:08:21;;;;;;;10.77;7.18;;;4.50;65.20;;;;;;4993788;28;20026;-78
2021/03/22 00:10:49;;;;;;;7.50;6.05;;;4.40;65.30;;;;;;4977822;28;20023;-78
2021/03/22 00:13:17;;;;;;;9.75;6.10;;;4.40;64.80;;;;;;4974520;28;20366;-77
2021/03/22 00:15:43;;;;;;;7.75;6.38;;;4.40;64.50;;;;;;4974291;28;20114;-78
2021/03/22 00:18:13;;;;;;;9.25;6.65;;;4.40;64.60;;;;;;4974180;28;20117;-78
2021/03/22 00:20:39;;;;;;;10.33;5.97;;;4.30;64.70;;;;;;4975859;28;20511;-78
2021/03/22 00:23:05;;;;;;;7.70;5.65;;;4.20;64.60;;;;;;4993516;28;20105;-78
2021/03/22 00:25:31;;;;;;;6.88;5.65;;;4.30;64.70;;;;;;4976191;28;20014;-78
2021/03/22 00:27:57;;;;;;;7.70;6.10;;;4.40;64.90;;;;;;4964810;28;20030;-79
2021/03/22 00:30:30;;;;;;;8.13;6.03;;;4.30;64.90;;;;;;4976732;28;20031;-78
2021/03/22 00:32:56;;;;;;;8.40;5.83;;;4.20;65.30;;;;;;4993411;28;20053;-78
2021/03/22 00:35:21;;;;;;;7.97;5.93;;;4.20;65.50;;;;;;4993615;28;20523;-78
2021/03/22 00:37:48;;;;;;;7.67;5.33;;;4.10;65.70;;;;;;4993531;28;20030;-78
2021/03/22 00:40:16;;;;;;;7.50;5.23;;;4.10;64.90;;;;;;4979808;28;20035;-78
2021/03/22 00:42:42;;;;;;;8.63;6.20;;;4.10;64.60;;;;;;4973942;28;20066;-78
2021/03/22 00:45:13;;;;;;;5.95;5.35;;;4.10;65.10;;;;;;4974045;28;20027;-79
2021/03/22 00:47:39;;;;;;;7.10;5.70;;;4.20;64.90;;;;;;4973838;28;20385;-78
2021/03/22 00:50:08;;;;;;;8.87;5.27;;;4.20;64.60;;;;;;4974747;28;20027;-78
2021/03/22 00:52:33;;;;;;;7.10;5.57;;;4.20;64.90;;;;;;4973940;28;20034;-78
2021/03/22 00:54:59;;;;;;;6.32;5.43;;;4.20;65.10;;;;;;4975066;28;20070;-78
2021/03/22 00:57:25;;;;;;;7.50;5.77;;;4.20;65.10;;;;;;4977687;28;20027;-78
2021/03/22 00:59:50;;;;;;;7.65;4.75;;;4.10;64.80;;;;;;4991796;28;20034;-78
2021/03/22 01:02:16;;;;;;;5.43;4.93;;;4.20;64.50;;;;;;4979239;28;20046;-78
2021/03/22 01:04:42;;;;;;;5.47;4.70;;;4.20;64.30;;;;;;4994799;28;20061;-78
2021/03/22 01:07:08;;;;;;;7.17;5.43;;;4.20;64.50;;;;;;4977733;28;20031;-78
2021/03/22 01:09:34;;;;;;;5.00;4.57;;;4.10;64.70;;;;;;4982297;28;20066;-78
2021/03/22 01:12:00;;;;;;;7.03;4.93;;;4.10;65.10;;;;;;4960185;28;20071;-78
2021/03/22 01:14:26;;;;;;;5.90;5.33;;;4.10;64.90;;;;;;4978337;28;20097;-78
2021/03/22 01:16:52;;;;;;;6.20;4.60;;;4.00;64.80;;;;;;4960128;28;20061;-78
2021/03/22 01:19:22;;;;;;;5.07;4.57;;;4.00;64.50;;;;;;4983138;28;20069;-78
2021/03/22 01:21:55;;;;;;;5.07;4.67;;;4.10;64.10;;;;;;4979228;28;20392;-78
2021/03/22 01:24:23;;;;;;;6.40;5.00;;;4.10;63.60;;;;;;4996766;28;20026;-78
2021/03/22 01:26:55;;;;;;;8.23;5.13;;;4.10;64.00;;;;;;4996571;28;20392;-78
2021/03/22 01:29:24;;;;;;;5.63;5.03;;;4.10;64.30;;;;;;4975204;28;20023;-78
2021/03/22 01:31:49;;;;;;;5.83;4.83;;;4.10;64.00;;;;;;4959798;28;20086;-79
2021/03/22 01:34:16;;;;;;;6.87;5.20;;;4.10;64.10;;;;;;4980547;28;20023;-78
2021/03/22 01:36:42;;;;;;;6.50;4.70;;;4.10;63.80;;;;;;4976981;28;20031;-78
2021/03/22 01:39:11;;;;;;;5.03;4.17;;;4.10;63.80;;;;;;4976841;28;20026;-78
2021/03/22 01:41:58;;;;;;;5.60;5.10;;;4.10;64.00;;;;;;4976965;28;20400;-78
2021/03/22 01:44:28;;;;;;;5.30;4.30;;;4.10;63.60;;;;;;4977020;28;20489;-78
2021/03/22 01:47:02;;;;;;;5.27;4.43;;;4.20;63.80;;;;;;4976799;28;20385;-77
2021/03/22 01:49:41;;;;;;;7.93;4.83;;;4.10;64.10;;;;;;4976806;28;20046;-78
2021/03/22 01:52:09;;;;;;;6.53;4.57;;;4.10;64.30;;;;;;4976693;28;20065;-78
2021/03/22 01:54:35;;;;;;;5.40;4.87;;;4.10;64.00;;;;;;4976889;28;20038;-78
2021/03/22 01:57:22;;;;;;;5.27;4.73;;;4.10;64.30;;;;;;4976632;28;20031;-78
2021/03/22 01:59:48;;;;;;;6.03;4.77;;;4.10;65.00;;;;;;4976629;28;20105;-77
2021/03/22 02:02:14;;;;;;;5.30;4.40;;;4.10;64.80;;;;;;4981950;28;20145;-78
2021/03/22 02:04:40;;;;;;;5.47;4.47;;;4.00;64.70;;;;;;4996032;28;20035;-78
2021/03/22 02:07:06;;;;;;;5.90;4.93;;;4.00;64.60;;;;;;4977338;28;20034;-78
2021/03/22 02:09:32;;;;;;;5.38;4.75;;;4.00;64.40;;;;;;4990106;28;20029;-78
2021/03/22 02:11:57;;;;;;;5.47;4.87;;;4.00;64.30;;;;;;4959000;28;20031;-78
2021/03/22 02:14:24;;;;;;;5.47;4.50;;;4.00;64.60;;;;;;4976343;28;20030;-78
2021/03/22 02:16:49;;;;;;;9.40;4.53;;;4.10;64.30;;;;;;4976221;28;20018;-78
2021/03/22 02:19:33;;;;;;;5.77;4.17;;;4.00;64.40;;;;;;4976233;28;20418;-78
2021/03/22 02:22:38;;;;;;;6.22;5.00;;;4.00;65.00;;;;;;4976196;28;20027;-78
2021/03/22 02:25:14;;;;;;;5.33;4.60;;;4.00;64.50;;;;;;4958459;28;20033;-78
2021/03/22 02:28:11;;;;;;;5.47;4.40;;;4.00;64.70;;;;;;4975933;28;20027;-79
2021/03/22 02:31:13;;;;;;;5.83;4.50;;;4.00;64.30;;;;;;4976103;28;20484;-78
2021/03/22 02:33:53;;;;;;;6.45;4.70;;;4.10;64.00;;;;;;4956871;29;20110;-78
2021/03/22 02:36:24;;;;;;;7.40;4.53;;;4.10;64.30;;;;;;4956769;29;20030;-78
2021/03/22 02:38:54;;;;;;;5.97;4.63;;;4.10;64.10;;;;;;4939662;28;20034;-78
2021/03/22 02:41:22;;;;;;;5.27;4.57;;;4.10;63.90;;;;;;4958530;28;20031;-78
2021/03/22 02:44:00;;;;;;;5.00;4.30;;;4.10;64.10;;;;;;4975901;28;20580;-78
2021/03/22 02:46:27;;;;;;;5.00;4.20;;;4.10;64.80;;;;;;4975749;28;20030;-78
2021/03/22 02:48:52;;;;;;;5.47;4.60;;;4.00;64.90;;;;;;4958094;28;20037;-78
2021/03/22 02:51:36;;;;;;;4.78;4.35;;;4.00;64.80;;;;;;4975721;28;20023;-78
2021/03/22 02:54:21;;;;;;;4.40;4.00;;;4.10;64.60;;;;;;4956366;29;20079;-78
2021/03/22 02:57:08;;;;;;;6.87;4.40;;;4.10;64.40;;;;;;4956130;29;20058;-78
2021/03/22 02:59:43;;;;;;;4.47;4.07;;;4.10;64.60;;;;;;4962395;28;20057;-78
2021/03/22 03:02:10;;;;;;;5.17;4.30;;;4.10;64.50;;;;;;4954656;29;20050;-78
2021/03/22 03:04:37;;;;;;;7.03;3.90;;;4.10;64.30;;;;;;4954877;29;20027;-78
2021/03/22 03:07:07;;;;;;;5.33;3.83;;;4.10;64.20;;;;;;4956092;29;20126;-78
2021/03/22 03:09:39;;;;;;;5.60;3.88;;;4.20;64.30;;;;;;4961924;28;20035;-78
2021/03/22 03:12:17;;;;;;;6.75;3.85;;;4.30;63.70;;;;;;4956219;28;20508;-78
2021/03/22 03:14:45;;;;;;;4.20;3.80;;;4.20;63.90;;;;;;4956930;28;20035;-78
2021/03/22 03:17:11;;;;;;;6.73;4.10;;;4.20;64.30;;;;;;4954678;29;20106;-78
2021/03/22 03:19:37;;;;;;;4.38;3.97;;;4.20;63.80;;;;;;4955675;28;20057;-78
2021/03/22 03:22:04;;;;;;;5.93;4.67;;;4.20;64.20;;;;;;4958411;28;20432;-78
2021/03/22 03:24:29;;;;;;;4.57;3.80;;;4.10;64.40;;;;;;4974981;28;20378;-78
2021/03/22 03:26:55;;;;;;;6.27;4.17;;;4.10;64.80;;;;;;4973692;28;20018;-78
2021/03/22 03:29:21;;;;;;;5.90;3.70;;;4.10;64.90;;;;;;4957701;28;20512;-78
2021/03/22 03:31:46;;;;;;;5.60;3.70;;;4.00;64.50;;;;;;4955602;29;20031;-78
2021/03/22 03:34:12;;;;;;;3.72;3.00;;;4.10;63.80;;;;;;4955596;29;20441;-78
2021/03/22 03:36:38;;;;;;;5.60;3.60;;;4.10;64.10;;;;;;4954308;29;20031;-78
2021/03/22 03:39:05;;;;;;;6.85;3.33;;;4.10;64.40;;;;;;4955464;28;20031;-78
2021/03/22 03:41:31;;;;;;;3.92;3.40;;;4.00;64.30;;;;;;4955528;29;20429;-78
2021/03/22 03:43:57;;;;;;;3.53;3.27;;;4.10;64.50;;;;;;4954211;29;20019;-78
2021/03/22 03:46:24;;;;;;;7.33;3.90;;;4.10;64.40;;;;;;4955261;29;20019;-78
2021/03/22 03:48:49;;;;;;;3.33;2.90;;;4.10;64.40;;;;;;4955347;28;20031;-78
2021/03/22 03:51:15;;;;;;;3.93;3.53;;;4.10;64.30;;;;;;4955327;29;20078;-79
2021/03/22 03:53:41;;;;;;;4.37;3.47;;;4.20;64.40;;;;;;4969572;28;20056;-78
2021/03/22 03:56:07;;;;;;;4.93;3.27;;;4.20;64.20;;;;;;4967655;28;20094;-78
2021/03/22 03:58:32;;;;;;;3.50;3.17;;;4.20;64.30;;;;;;4955288;29;20082;-78
2021/03/22 04:00:58;;;;;;;3.20;2.90;;;4.10;64.00;;;;;;4958555;28;20375;-78
2021/03/22 04:03:38;;;;;;;3.30;3.00;;;4.10;64.20;;;;;;4978629;28;20075;-78
2021/03/22 04:06:14;;;;;;;3.83;3.30;;;4.20;64.30;;;;;;4957435;28;20027;-78
2021/03/22 04:08:45;;;;;;;3.27;2.53;;;4.10;64.20;;;;;;4938189;29;20043;-78
2021/03/22 04:11:15;;;;;;;2.80;2.50;;;4.10;64.20;;;;;;4974140;28;20122;-78
2021/03/22 04:13:41;;;;;;;3.93;2.97;;;4.10;64.70;;;;;;4974461;28;20110;-78
2021/03/22 04:16:09;;;;;;;4.63;2.80;;;4.10;65.10;;;;;;4957235;28;20458;-78
2021/03/22 04:18:37;;;;;;;3.13;2.93;;;4.10;65.70;;;;;;4974419;28;20501;-78
2021/03/22 04:21:08;;;;;;;2.87;2.67;;;4.10;65.50;;;;;;4974414;28;20026;-78
2021/03/22 04:23:34;;;;;;;2.40;2.20;;;4.10;65.10;;;;;;4974469;28;20152;-78
2021/03/22 04:26:02;;;;;;;2.83;2.55;;;4.10;64.90;;;;;;4974225;28;20031;-78
2021/03/22 04:28:29;;;;;;;2.67;2.47;;;4.10;65.00;;;;;;4974677;28;20042;-78
2021/03/22 04:30:55;;;;;;;3.00;2.70;;;4.10;65.30;;;;;;4979563;28;20027;-78
2021/03/22 04:33:20;;;;;;;4.07;2.80;;;4.00;65.60;;;;;;4980912;28;20034;-79
2021/03/22 04:35:46;;;;;;;2.50;2.27;;;3.90;65.90;;;;;;4980939;28;20058;-78
2021/03/22 04:38:12;;;;;;;3.03;2.70;;;3.90;66.00;;;;;;4981332;28;20524;-78
2021/03/22 04:40:38;;;;;;;3.33;2.60;;;3.90;65.90;;;;;;4981012;28;20374;-78
2021/03/22 04:43:04;;;;;;;2.73;2.40;;;3.90;66.10;;;;;;4963433;28;20366;-79
2021/03/22 04:45:30;;;;;;;3.60;2.77;;;3.90;66.00;;;;;;4980868;28;20030;-78
2021/03/22 04:47:56;;;;;;;3.53;2.63;;;3.90;66.10;;;;;;4963175;28;20033;-78
2021/03/22 04:50:25;;;;;;;4.00;2.25;;;3.90;66.10;;;;;;4980575;28;20065;-78
2021/03/22 04:52:51;;;;;;;2.63;2.43;;;3.80;66.20;;;;;;4980307;28;20050;-78
2021/03/22 04:55:18;;;;;;;3.53;2.30;;;3.90;66.30;;;;;;4978852;28;20092;-78
2021/03/22 04:57:44;;;;;;;3.23;2.70;;;3.90;66.60;;;;;;4999748;28;20477;-78
2021/03/22 05:00:21;;;;;;;2.67;2.47;;;3.90;67.20;;;;;;4994269;28;20026;-78
2021/03/22 05:02:46;;;;;;;2.67;2.30;;;3.80;67.00;;;;;;4980179;28;20051;-78
2021/03/22 05:05:12;;;;;;;2.47;2.27;;;3.90;66.80;;;;;;4962977;28;20046;-78
2021/03/22 05:07:38;;;;;;;4.23;2.80;;;3.90;67.30;;;;;;4962827;28;20047;-78
2021/03/22 05:10:07;;;;;;;3.67;2.60;;;3.80;67.90;;;;;;4980213;28;20081;-78
2021/03/22 05:12:33;;;;;;;2.70;2.50;;;3.80;68.20;;;;;;4962977;28;20077;-79
2021/03/22 05:14:58;;;;;;;3.33;3.00;;;3.70;68.90;;;;;;4980215;28;20018;-78
2021/03/22 05:17:24;;;;;;;2.97;2.78;;;3.70;69.00;;;;;;4982302;28;20708;-78
2021/03/22 05:19:50;;;;;;;4.00;3.63;;;3.70;69.30;;;;;;4980428;28;20035;-79
2021/03/22 05:22:15;;;;;;;3.57;2.90;;;3.50;69.80;;;;;;4999510;28;20030;-79
2021/03/22 05:24:41;;;;;;;5.67;3.47;;;3.50;70.70;;;;;;4982056;28;20120;-79
2021/03/22 05:27:08;;;;;;;4.60;3.87;;;3.50;71.00;;;;;;4999458;28;20022;-79
2021/03/22 05:29:33;;;;;;;4.93;4.43;;;3.30;71.00;;;;;;4982893;28;20114;-79
2021/03/22 05:31:59;;;;;;;7.87;5.00;;;3.30;71.30;;;;;;4980128;28;20457;-78
2021/03/22 05:34:25;;;;;;;6.00;4.37;;;3.30;71.50;;;;;;4989530;28;20428;-78
2021/03/22 05:36:51;;;;;;;7.87;5.43;;;3.30;72.30;;;;;;4999494;28;20109;-78
2021/03/22 05:39:18;;;;;;;9.33;6.50;;;3.30;72.40;;;;;;4999356;28;20373;-78
2021/03/22 05:41:57;;;;;;;8.63;5.27;;;3.40;72.50;;;;;;4997819;28;20030;-78
2021/03/22 05:44:57;;;;;;;6.10;4.70;;;3.40;72.30;;;;;;4996351;28;20022;-79
2021/03/22 05:47:33;;;;;;;6.13;4.40;;;3.40;72.20;;;;;;4941370;29;20394;-78
2021/03/22 05:50:11;;;;;;;5.93;4.90;;;3.50;73.10;;;;;;4959508;28;20027;-78
2021/03/22 05:52:56;;;;;;;7.37;5.57;;;3.50;74.20;;;;;;4996233;28;20038;-78
2021/03/22 05:55:53;;;;;;;8.20;5.70;;;3.50;73.80;;;;;;4996313;28;20031;-79
2021/03/22 05:58:31;;;;;;;9.03;5.90;;;3.50;73.70;;;;;;4994640;28;20440;-79
2021/03/22 06:01:18;;;;;;;5.77;4.80;;;3.50;74.00;;;;;;4994501;28;20026;-79
2021/03/22 06:04:06;;;;;;;5.93;4.33;;;3.50;73.50;;;;;;4979638;28;20058;-78
2021/03/22 06:06:43;;;;;;;6.60;3.83;;;3.60;73.50;;;;;;4975647;28;20066;-78
2021/03/22 06:09:30;;;;;;;5.17;3.60;;;3.70;73.20;;;;;;4976599;28;20417;-79
2021/03/22 06:12:33;;;;;;;4.90;3.63;;;3.70;74.00;;;;;;4959040;28;20027;-79
2021/03/22 06:15:16;;;;;;;7.87;4.47;;;3.80;74.30;;;;;;4978365;28;20030;-78
2021/03/22 06:18:06;;;;;;;5.30;4.77;;;3.80;75.50;;;;;;4995732;28;20429;-79
2021/03/22 06:20:40;;;;;;;4.80;4.30;;;3.90;75.50;;;;;;4978282;28;20105;-78
2021/03/22 06:23:25;;;;;;;10.97;4.40;;;3.90;75.30;;;;;;4995559;28;20030;-79
2021/03/22 06:25:51;;;;;;;9.83;5.07;;;3.90;75.10;;;;;;4995512;28;20053;-79
2021/03/22 06:28:22;;;;;;;4.17;3.60;;;4.00;74.30;;;;;;4967639;28;20069;-79
2021/03/22 06:30:57;;;;;;;7.60;4.30;;;4.00;74.50;;;;;;4976092;28;20485;-79
2021/03/22 06:33:31;;;;;;;9.57;5.90;;;4.00;77.30;;;;;;4976049;28;20106;-79
2021/03/22 06:35:57;;;;;;;10.13;4.73;;;4.10;77.10;;;;;;4975799;28;20110;-78
2021/03/22 06:38:23;;;;;;;7.17;4.47;;;4.10;76.80;;;;;;4995156;28;20105;-79
2021/03/22 06:40:48;;;;;;;7.53;4.78;;;4.20;76.50;;;;;;4989052;28;20050;-79
2021/03/22 06:43:21;;;;;;;5.67;4.73;;;4.30;76.90;;;;;;4975841;28;20027;-79
2021/03/22 06:45:53;;;;;;;6.60;5.53;;;4.40;76.20;;;;;;4975754;28;20054;-78
2021/03/22 06:48:29;;;;;;;8.68;5.85;;;4.40;75.00;;;;;;4981001;28;20023;-79
2021/03/22 06:51:04;;;;;;;11.75;5.13;;;4.50;73.80;;;;;;4995149;28;20029;-78
2021/03/22 06:53:38;;;;;;;7.88;5.03;;;4.60;73.60;;;;;;4976624;28;20041;-78
2021/03/22 06:56:10;;;;;;;12.98;6.47;;;4.70;72.70;;;;;;4994735;28;20373;-79
2021/03/22 06:58:35;;;;;;;7.45;4.80;;;4.80;72.10;;;;;;4982187;28;20030;-79
2021/03/22 07:01:25;;;;;;;10.48;5.28;;;4.80;71.60;;;;;;4975448;28;20027;-79
2021/03/22 07:03:52;;;;;;;7.43;5.10;;;4.80;72.00;;;;;;4975175;28;20124;-78
2021/03/22 07:06:19;;;;;;;11.55;5.75;;;4.90;72.30;;;;;;4975376;28;20567;-79
2021/03/22 07:08:45;;;;;;;12.10;6.78;;;5.00;72.50;;;;;;4967699;28;20751;-78
2021/03/22 07:11:21;;;;;;;13.82;7.93;;;5.10;71.70;;;;;;4994731;28;20031;-78
2021/03/22 07:13:52;;;;;;;12.02;8.27;;;5.10;71.10;;;;;;4975657;28;20092;-78
2021/03/22 07:16:20;;;;;;;11.20;7.70;;;5.00;69.20;;;;;;4986465;28;20041;-78
2021/03/22 07:19:22;;;;;;;14.57;7.72;;;5.10;69.90;;;;;;4975170;28;20473;-79
2021/03/22 07:21:56;;;;;;;12.40;7.57;;;5.20;71.60;;;;;;4896484;29;20044;-78
2021/03/22 07:24:55;;;;;;;17.38;9.00;;;5.30;72.60;;;;;;4973736;28;20540;-79
2021/03/22 07:27:34;;;;;;;15.48;7.75;;;5.30;71.50;;;;;;4957536;28;20030;-78
2021/03/22 07:30:29;;;;;;;17.30;9.57;;;5.40;71.40;;;;;;4974941;28;20393;-78
2021/03/22 07:33:26;;;;;;;20.45;10.95;;;5.50;71.80;;;;;;4964641;28;20481;-78
2021/03/22 07:36:00;;;;;;;19.08;10.18;;;5.50;73.70;;;;;;4955540;29;20086;-78
2021/03/22 07:38:44;;;;;;;19.95;10.73;;;5.60;73.80;;;;;;4955566;29;20339;-78
2021/03/22 07:41:21;;;;;;;17.42;10.75;;;5.70;74.80;;;;;;4986823;28;20023;-79
2021/03/22 07:44:04;;;;;;;20.33;11.55;;;5.70;75.90;;;;;;4974831;28;20117;-78
2021/03/22 07:46:29;;;;;;;;;;;5.80;77.60;;;;;;4975155;28;20026;-78
2021/03/22 07:49:13;;;;;;;21.38;13.20;;;5.80;81.10;;;;;;4985978;28;20375;-78
2021/03/22 07:51:56;;;;;;;24.50;13.15;;;5.90;81.70;;;;;;4938008;29;20499;-78
2021/03/22 07:54:42;;;;;;;20.15;13.20;;;6.00;81.50;;;;;;4965672;28;20069;-79
2021/03/22 07:57:37;;;;;;;20.85;11.98;;;6.00;81.00;;;;;;4937793;29;20074;-79
2021/03/22 08:00:15;;;;;;;21.88;13.32;;;6.20;81.70;;;;;;4955072;29;20090;-78
2021/03/22 08:02:56;;;;;;;22.90;12.77;;;6.20;82.30;;;;;;4961816;28;20047;-78
2021/03/22 08:05:32;;;;;;;19.00;12.77;;;6.30;82.90;;;;;;4952215;28;20031;-78
2021/03/22 08:08:28;;;;;;;21.30;13.00;;;6.50;83.10;;;;;;4954329;28;20031;-78
2021/03/22 08:11:28;;;;;;;20.88;13.18;;;6.60;83.30;;;;;;4950897;28;20031;-79
2021/03/22 08:14:33;;;;;;;21.17;13.25;;;6.60;83.40;;;;;;4940597;29;20034;-78
2021/03/22 08:17:12;;;;;;;24.45;13.70;;;6.70;82.80;;;;;;4949656;28;20130;-78
2021/03/22 08:20:00;;;;;;;22.17;12.45;;;6.70;82.40;;;;;;4951918;28;20042;-78
2021/03/22 08:22:29;;;;;;;19.30;12.32;;;6.80;81.20;;;;;;4951808;28;20034;-78
2021/03/22 08:25:15;;;;;;;21.67;12.55;;;6.80;79.90;;;;;;4949389;28;20028;-78
2021/03/22 08:27:46;;;;;;;18.90;11.90;;;6.90;79.90;;;;;;4948864;28;20035;-73
2021/03/22 08:30:28;;;;;;;20.15;12.60;;;6.90;80.10;;;;;;4942576;28;20065;-78
2021/03/22 08:32:59;;;;;;;16.13;12.27;;;7.00;79.50;;;;;;4950659;28;20059;-73
2021/03/22 08:35:30;;;;;;;19.35;11.88;;;7.00;79.00;;;;;;4948010;28;20038;-74
2021/03/22 08:38:09;;;;;;;19.83;12.77;;;7.10;79.20;;;;;;4949083;28;20457;-74
2021/03/22 08:40:56;;;;;;;20.90;12.35;;;7.10;79.20;;;;;;4952100;28;20027;-78
2021/03/22 08:43:27;;;;;;;26.50;13.52;;;7.20;79.80;;;;;;4951202;28;20123;-78
2021/03/22 08:46:26;;;;;;;19.08;12.75;;;7.10;77.90;;;;;;4952991;28;20042;-77
2021/03/22 08:48:52;;;;;;;23.92;14.32;;;7.10;77.20;;;;;;4960351;28;20030;-78
2021/03/22 08:51:27;;;;;;;23.42;15.40;;;7.20;78.30;;;;;;4959775;28;20027;-78
2021/03/22 08:53:56;;;;;;;26.63;16.05;;;7.20;79.20;;;;;;4959428;28;20050;-78
2021/03/22 08:56:48;;;;;;;33.03;17.52;;;7.30;79.00;;;;;;4953637;28;20549;-77
2021/03/22 08:59:20;;;;;;;27.80;17.48;;;7.30;79.40;;;;;;4955444;28;20032;-78
2021/03/22 09:01:46;;;;;;;28.88;17.70;;;7.30;79.00;;;;;;4954956;28;20082;-78
2021/03/22 09:04:31;;;;;;;28.80;16.85;;;7.30;78.50;;;;;;4958180;28;20031;-78
2021/03/22 09:07:25;;;;;;;23.92;15.27;;;7.40;79.50;;;;;;4970687;28;20027;-78
2021/03/22 09:09:51;;;;;;;24.08;15.57;;;7.50;78.60;;;;;;4939525;29;20144;-78
2021/03/22 09:12:45;;;;;;;27.02;14.73;;;7.50;79.00;;;;;;4963942;28;20027;-77
2021/03/22 09:15:31;;;;;;;23.27;15.23;;;7.50;76.00;;;;;;4957114;28;20030;-78
2021/03/22 09:18:02;;;;;;;21.85;13.75;;;7.60;76.00;;;;;;4953590;28;20099;-78
2021/03/22 09:20:53;;;;;;;32.73;14.77;;;7.70;78.60;;;;;;4958534;28;20023;-78
2021/03/22 09:23:42;;;;;;;22.55;15.02;;;7.80;78.40;;;;;;4952996;28;20277;-78
2021/03/22 09:26:09;;;;;;;19.77;12.43;;;8.00;78.70;;;;;;4963776;28;20023;-78
2021/03/22 09:28:56;;;;;;;23.23;13.35;;;8.20;79.50;;;;;;4962400;28;20154;-77
2021/03/22 09:31:21;;;;;;;21.70;12.88;;;8.20;78.50;;;;;;4960384;28;20019;-77
2021/03/22 09:33:55;;;;;;;21.10;13.02;;;8.30;78.00;;;;;;4965524;28;20035;-78
2021/03/22 09:36:36;;;;;;;26.00;14.10;;;8.30;78.70;;;;;;4962171;28;20090;-77
2021/03/22 09:39:05;;;;;;;22.52;13.63;;;8.40;79.70;;;;;;4960012;28;20155;-78
2021/03/22 09:41:58;;;;;;;24.98;13.95;;;8.50;80.00;;;;;;4963968;28;20090;-77
2021/03/22 09:44:29;;;;;;;20.27;13.20;;;8.60;77.90;;;;;;4964378;28;20019;-77
2021/03/22 09:47:13;;;;;;;31.02;14.48;;;8.60;75.50;;;;;;4950272;28;20061;-77
2021/03/22 09:49:57;;;;;;;22.50;11.63;;;8.60;75.60;;;;;;4942394;28;20429;-78
2021/03/22 09:52:29;;;;;;;18.08;11.52;;;8.80;75.00;;;;;;4938311;28;20035;-78
2021/03/22 09:54:56;;;;;;;28.38;14.30;;;8.90;73.70;;;;;;4956623;28;20027;-77
2021/03/22 09:57:36;;;;;;;31.45;15.13;;;8.90;74.30;;;;;;4951214;28;20030;-78
2021/03/22 10:00:11;;;;;;;23.92;15.20;;;8.90;73.80;;;;;;4948554;28;20038;-78
2021/03/22 10:02:44;;;;;;;24.48;14.68;;;8.90;73.00;;;;;;4958002;28;20493;-77
2021/03/22 10:05:16;;;;;;;26.30;14.73;;;8.90;73.80;;;;;;4966648;28;20054;-77
2021/03/22 10:07:42;;;;;;;20.27;12.90;;;8.90;72.30;;;;;;4965220;28;20035;-77
2021/03/22 10:10:23;;;;;;;21.70;13.60;;;9.00;69.30;;;;;;4956244;28;20042;-78
2021/03/22 10:13:41;;;;;;;23.77;14.45;;;9.10;67.30;;;;;;4953347;28;20035;-78
2021/03/22 10:16:24;;;;;;;23.83;12.77;;;9.10;70.30;;;;;;4954825;28;20401;-78
2021/03/22 10:18:56;;;;;;;22.55;13.15;;;9.20;68.90;;;;;;4957990;28;20034;-80
2021/03/22 10:21:35;;;;;;;25.00;13.20;;;9.20;66.50;;;;;;4957478;28;20672;-79
2021/03/22 10:24:11;;;;;;;20.95;13.27;;;9.20;68.70;;;;;;4945133;28;20078;-79
2021/03/22 10:26:46;;;;;;;18.80;11.80;;;9.20;69.90;;;;;;4951942;28;20122;-80
2021/03/22 10:29:25;;;;;;;22.33;11.65;;;9.40;66.60;;;;;;4947398;28;20733;-78
2021/03/22 10:32:07;;;;;;;18.90;11.75;;;9.40;67.30;;;;;;4963325;28;20023;-78
2021/03/22 10:34:48;;;;;;;15.13;10.27;;;9.60;67.60;;;;;;4946307;28;20401;-79
2021/03/22 10:37:19;;;;;;;14.68;9.35;;;9.80;64.50;;;;;;4953105;28;20481;-79
2021/03/22 10:39:48;;;;;;;18.95;11.18;;;9.90;61.70;;;;;;4951399;28;20035;-79
2021/03/22 10:42:35;;;;;;;23.20;10.43;;;9.80;62.90;;;;;;4968255;28;20489;-78
2021/03/22 10:45:01;;;;;;;16.38;11.27;;;9.80;64.60;;;;;;4960165;28;20532;-78
2021/03/22 10:47:30;;;;;;;25.08;12.10;;;10.00;66.20;;;;;;4951706;28;20027;-78
2021/03/22 10:50:12;;;;;;;18.85;11.15;;;10.10;65.00;;;;;;4951315;28;20096;-78
2021/03/22 10:52:37;;;;;;;19.63;10.23;;;10.20;64.70;;;;;;4952545;28;20050;-78
2021/03/22 10:55:04;;;;;;;16.80;10.88;;;10.40;64.30;;;;;;4955830;28;20058;-78
2021/03/22 10:57:43;;;;;;;18.05;9.57;;;10.50;63.50;;;;;;4953176;29;20390;-77
2021/03/22 11:00:28;;;;;;;16.48;11.00;;;10.60;60.60;;;;;;4953162;28;20023;-79
2021/03/22 11:02:55;;;;;;;19.20;11.00;;;10.90;61.40;;;;;;4939785;28;20078;-74
2021/03/22 11:05:38;;;;;;;21.15;10.65;;;10.90;59.20;;;;;;4954693;28;20490;-74
2021/03/22 11:08:08;;;;;;;20.75;9.85;;;11.00;61.20;;;;;;4945584;28;20105;-74
2021/03/22 11:10:36;;;;;;;19.38;12.88;;;11.20;63.50;;;;;;4952967;28;20026;-74
2021/03/22 11:13:03;;;;;;;20.38;12.55;;;11.40;63.90;;;;;;4952959;28;20086;-74
2021/03/22 11:15:34;;;;;;;23.52;12.90;;;11.60;62.00;;;;;;4968882;28;20038;-74
2021/03/22 11:18:02;;;;;;;20.20;13.25;;;11.50;59.10;;;;;;4960418;28;20035;-74
2021/03/22 11:20:29;;;;;;;20.25;12.52;;;11.30;58.90;;;;;;4957331;28;20023;-73
2021/03/22 11:23:13;;;;;;;18.15;11.10;;;11.40;59.90;;;;;;4943642;28;20062;-74
2021/03/22 11:25:39;;;;;;;19.45;12.23;;;11.30;60.50;;;;;;4956806;28;20031;-74
2021/03/22 11:28:19;;;;;;;20.00;11.35;;;11.40;60.50;;;;;;4961796;28;20023;-73
2021/03/22 11:30:54;;;;;;;17.05;10.35;;;11.30;59.40;;;;;;4960473;28;20402;-73
2021/03/22 11:33:35;;;;;;;21.48;11.23;;;11.30;59.90;;;;;;4936677;28;20038;-74
2021/03/22 11:36:03;;;;;;;15.33;10.97;;;11.20;58.40;;;;;;4943693;28;20026;-74
2021/03/22 11:38:35;;;;;;;21.98;10.88;;;11.10;59.00;;;;;;4933089;28;20510;-74
2021/03/22 11:41:01;;;;;;;19.63;11.00;;;11.10;58.70;;;;;;4931661;28;20042;-74
2021/03/22 11:43:30;;;;;;;21.70;11.90;;;11.00;60.80;;;;;;4949476;28;20035;-74
2021/03/22 11:46:12;;;;;;;12.07;9.30;;;11.00;60.50;;;;;;4960120;28;20030;-74
2021/03/22 11:48:39;;;;;;;13.65;9.23;;;11.20;60.90;;;;;;4920222;28;20029;-74
2021/03/22 11:51:13;;;;;;;19.65;11.20;;;11.40;60.10;;;;;;4945550;28;20030;-73
2021/03/22 11:54:05;;;;;;;14.98;10.70;;;11.60;59.30;;;;;;4953288;28;20023;-73
2021/03/22 11:56:35;;;;;;;14.05;9.73;;;11.80;58.60;;;;;;4941767;28;20122;-74
2021/03/22 11:59:20;;;;;;;17.35;10.10;;;12.00;56.90;;;;;;4963825;28;20030;-74
2021/03/22 12:02:04;;;;;;;17.95;9.80;;;12.20;57.50;;;;;;4962065;28;20121;-73
2021/03/22 12:04:31;;;;;;;15.43;9.57;;;12.40;56.80;;;;;;4953755;28;20038;-74
2021/03/22 12:07:11;;;;;;;28.20;11.05;;;12.50;54.10;;;;;;4971065;28;20030;-74
2021/03/22 12:09:41;;;;;;;15.00;9.43;;;12.60;53.70;;;;;;4969162;28;20507;-73
2021/03/22 12:12:14;;;;;;;13.82;8.93;;;12.80;55.90;;;;;;4969737;28;20683;-74
2021/03/22 12:14:40;;;;;;;11.57;8.40;;;12.90;56.30;;;;;;4965413;28;20057;-74
2021/03/22 12:17:18;;;;;;;13.50;8.65;;;13.00;51.90;;;;;;4975766;28;20113;-73
2021/03/22 12:19:44;;;;;;;10.35;7.90;;;13.00;50.70;;;;;;4973314;28;20115;-74
2021/03/22 12:22:20;;;;;;;17.90;9.43;;;13.20;51.60;;;;;;4973347;28;20108;-73
2021/03/22 12:24:46;;;;;;;13.43;8.15;;;13.40;52.10;;;;;;4980106;28;20029;-73
2021/03/22 12:27:14;;;;;;;11.77;8.15;;;13.50;51.10;;;;;;4982076;28;20559;-73
2021/03/22 12:29:40;;;;;;;11.07;7.43;;;13.60;51.20;;;;;;4957962;28;20023;-73
2021/03/22 12:32:06;;;;;;;12.48;7.78;;;13.80;49.60;;;;;;4975317;28;20102;-74
2021/03/22 12:34:33;;;;;;;12.27;7.45;;;13.90;49.50;;;;;;4974778;28;20022;-74
2021/03/22 12:36:59;;;;;;;11.35;7.65;;;13.90;46.80;;;;;;4970679;28;20031;-74
2021/03/22 12:39:36;;;;;;;15.57;7.90;;;13.90;47.80;;;;;;4955355;28;20492;-73
2021/03/22 12:42:06;;;;;;;11.32;6.63;;;14.00;47.00;;;;;;4951440;28;20042;-73
2021/03/22 12:44:33;;;;;;;6.28;5.28;;;14.00;44.80;;;;;;4972094;28;20467;-73
2021/03/22 12:46:59;;;;;;;7.95;5.00;;;14.10;42.20;;;;;;4983248;28;20038;-74
2021/03/22 12:49:26;;;;;;;8.07;5.20;;;14.00;42.20;;;;;;4977555;28;20011;-74
2021/03/22 12:51:52;;;;;;;7.07;4.40;;;14.10;42.20;;;;;;4984277;28;20038;-74
2021/03/22 12:54:18;;;;;;;4.20;3.80;;;14.20;40.70;;;;;;4974631;28;20033;-74
2021/03/22 12:56:43;;;;;;;5.38;2.75;;;14.30;39.20;;;;;;4979869;28;20078;-74
2021/03/22 12:59:39;;;;;;;2.70;2.50;;;14.30;38.40;;;;;;4986603;28;20672;-74
2021/03/22 13:02:17;;;;;;;2.30;2.10;;;14.50;38.60;;;;;;4974067;28;20134;-74
2021/03/22 13:04:44;;;;;;;2.53;2.30;;;14.50;37.80;;;;;;4967715;28;20026;-73
2021/03/22 13:07:10;;;;;;;4.65;3.00;;;14.60;37.90;;;;;;4969734;28;20054;-74
2021/03/22 13:09:38;;;;;;;4.85;3.45;;;14.70;38.10;;;;;;4966662;28;20023;-74
2021/03/22 13:12:07;;;;;;;3.15;2.95;;;14.80;39.10;;;;;;4968164;28;20436;-74
2021/03/22 13:14:35;;;;;;;3.53;3.25;;;14.90;38.80;;;;;;4963353;28;20031;-73
2021/03/22 13:17:00;;;;;;;4.25;3.85;;;14.80;36.50;;;;;;4966766;28;20137;-73
2021/03/22 13:19:26;;;;;;;6.75;3.35;;;14.70;35.20;;;;;;4969468;28;20115;-73